Time;durP1;ratioP1;P1;durP2;ratioP2;P2;SDS_P1;SDS_P2;PMS_P1;PMS_P2;Temp;Humidity;BMP_temperature;BMP_pressure;BME280_temperature;BME280_humidity;BME280_pressure;Samples;Min_cycle;Max_cycle;Signal;HPM_P1;HPM_P2
2023/12/20 00:00:58;;;;;;;;;;;;;;;;;;5143646;28;20021;-57
2023/12/20 00:03:29;;;;;;;;;;;;;;;;;;5143898;28;19922;-57
2023/12/20 00:06:00;;;;;;;;;;;;;;;;;;5145306;28;20476;-59
2023/12/20 00:08:31;;;;;;;;;;;;;;;;;;5138494;28;20007;-59
2023/12/20 00:11:02;;;;;;;;;;;;;;;;;;5143993;28;19924;-59
2023/12/20 00:13:33;;;;;;;;;;;;;;;;;;5143703;28;20289;-59
2023/12/20 00:16:04;;;;;;;;;;;;;;;;;;5147992;28;19917;-58
2023/12/20 00:18:35;;;;;;;;;;;;;;;;;;5155404;28;19980;-59
2023/12/20 00:21:06;;;;;;;;;;;;;;;;;;5143637;28;20017;-59
2023/12/20 00:23:37;;;;;;;;;;;;;;;;;;5143565;28;19925;-59
2023/12/20 00:26:08;;;;;;;;;;;;;;;;;;5143146;28;20325;-58
2023/12/20 00:28:39;;;;;;;;;;;;;;;;;;5143172;28;19921;-59
2023/12/20 00:31:10;;;;;;;;;;;;;;;;;;5134848;28;19957;-59
2023/12/20 00:33:43;;;;;;;;;;;;;;;;;;5142508;28;19972;-59
2023/12/20 00:36:14;;;;;;;;;;;;;;;;;;5145642;28;20059;-58
2023/12/20 00:38:45;;;;;;;;;;;;;;;;;;5144926;28;20397;-58
2023/12/20 00:41:16;;;;;;;;;;;;;;;;;;5143201;28;19929;-58
2023/12/20 00:43:47;;;;;;;;;;;;;;;;;;5126604;28;19922;-59
2023/12/20 00:46:19;;;;;;;;;;;;;;;;;;5126645;28;19926;-58
2023/12/20 00:48:50;;;;;;;;;;;;;;;;;;5127386;28;20376;-58
2023/12/20 00:51:22;;;;;;;;;;;;;;;;;;5142850;28;19922;-56
2023/12/20 00:53:54;;;;;;;;;;;;;;;;;;5126708;28;19922;-56
2023/12/20 00:56:25;;;;;;;;;;;;;;;;;;5134199;28;20265;-56
2023/12/20 00:58:56;;;;;;;;;;;;;;;;;;5142155;28;19918;-57
2023/12/20 01:01:27;;;;;;;;;;;;;;;;;;5142783;28;20346;-58
2023/12/20 01:03:58;;;;;;;;;;;;;;;;;;5149976;28;19926;-58
2023/12/20 01:06:29;;;;;;;;;;;;;;;;;;5144101;28;19918;-60
2023/12/20 01:09:00;;;;;;;;;;;;;;;;;;5145102;28;19918;-59
2023/12/20 01:11:31;;;;;;;;;;;;;;;;;;5144602;28;20005;-59
2023/12/20 01:14:02;;;;;;;;;;;;;;;;;;5142002;28;20568;-59
2023/12/20 01:16:33;;;;;;;;;;;;;;;;;;5147266;28;19929;-59
2023/12/20 01:19:04;;;;;;;;;;;;;;;;;;5141975;28;20351;-59
2023/12/20 01:21:35;;;;;;;;;;;;;;;;;;5142788;28;20393;-59
2023/12/20 01:24:06;;;;;;;;;;;;;;;;;;5141836;28;19918;-60
2023/12/20 01:26:37;;;;;;;;;;;;;;;;;;5150210;28;19940;-59
2023/12/20 01:29:08;;;;;;;;;;;;;;;;;;5126111;28;19973;-59
2023/12/20 01:31:40;;;;;;;;;;;;;;;;;;5145888;28;19922;-59
2023/12/20 01:34:11;;;;;;;;;;;;;;;;;;5141650;28;19986;-59
2023/12/20 01:36:42;;;;;;;;;;;;;;;;;;5142390;28;19929;-59
2023/12/20 01:39:13;;;;;;;;;;;;;;;;;;5142192;28;20277;-59
2023/12/20 01:41:45;;;;;;;;;;;;;;;;;;5126005;28;19928;-59
2023/12/20 01:44:16;;;;;;;;;;;;;;;;;;5141805;28;19928;-59
2023/12/20 01:46:47;;;;;;;;;;;;;;;;;;5148869;28;19922;-59
2023/12/20 01:49:18;;;;;;;;;;;;;;;;;;5141594;28;19969;-59
2023/12/20 01:51:49;;;;;;;;;;;;;;;;;;5141786;28;19922;-59
2023/12/20 01:54:20;;;;;;;;;;;;;;;;;;5129237;28;19948;-59
2023/12/20 01:56:51;;;;;;;;;;;;;;;;;;5141625;28;20009;-59
2023/12/20 01:59:22;;;;;;;;;;;;;;;;;;5141202;28;20012;-59
2023/12/20 02:01:53;;;;;;;;;;;;;;;;;;5144228;28;19918;-59
2023/12/20 02:04:24;;;;;;;;;;;;;;;;;;5141009;28;19918;-59
2023/12/20 02:06:55;;;;;;;;;;;;;;;;;;5141458;28;20438;-59
2023/12/20 02:09:26;;;;;;;;;;;;;;;;;;5133223;28;19925;-58
2023/12/20 02:11:57;;;;;;;;;;;;;;;;;;5141334;28;19925;-59
2023/12/20 02:14:28;;;;;;;;;;;;;;;;;;5128947;28;19922;-59
2023/12/20 02:16:59;;;;;;;;;;;;;;;;;;5125432;28;20008;-59
2023/12/20 02:19:31;;;;;;;;;;;;;;;;;;5140881;28;20321;-62
2023/12/20 02:22:02;;;;;;;;;;;;;;;;;;5149063;28;20724;-61
2023/12/20 02:24:33;;;;;;;;;;;;;;;;;;5124933;28;19922;-60
2023/12/20 02:27:04;;;;;;;;;;;;;;;;;;5140931;28;20309;-61
2023/12/20 02:29:35;;;;;;;;;;;;;;;;;;5132148;28;19965;-60
2023/12/20 02:32:06;;;;;;;;;;;;;;;;;;5124847;28;19925;-60
2023/12/20 02:34:37;;;;;;;;;;;;;;;;;;5123724;28;19918;-61
2023/12/20 02:37:08;;;;;;;;;;;;;;;;;;5120893;28;19974;-61
2023/12/20 02:39:39;;;;;;;;;;;;;;;;;;5140570;28;19918;-61
2023/12/20 02:42:10;;;;;;;;;;;;;;;;;;5147020;28;19979;-61
2023/12/20 02:44:41;;;;;;;;;;;;;;;;;;5141420;28;20310;-62
2023/12/20 02:47:12;;;;;;;;;;;;;;;;;;5141120;28;20001;-61
2023/12/20 02:49:43;;;;;;;;;;;;;;;;;;5142939;28;20357;-59
2023/12/20 02:52:14;;;;;;;;;;;;;;;;;;5141403;28;19933;-59
2023/12/20 02:54:45;;;;;;;;;;;;;;;;;;5140570;28;19922;-59
2023/12/20 02:57:16;;;;;;;;;;;;;;;;;;5129606;28;20366;-59
2023/12/20 02:59:47;;;;;;;;;;;;;;;;;;5164045;28;19973;-59
2023/12/20 03:02:18;;;;;;;;;;;;;;;;;;5139599;28;19921;-59
2023/12/20 03:04:49;;;;;;;;;;;;;;;;;;5151999;28;19983;-59
2023/12/20 03:07:20;;;;;;;;;;;;;;;;;;5147805;28;20362;-59
2023/12/20 03:09:51;;;;;;;;;;;;;;;;;;5151104;28;19973;-61
2023/12/20 03:12:22;;;;;;;;;;;;;;;;;;5153256;28;19922;-60
2023/12/20 03:14:53;;;;;;;;;;;;;;;;;;5146985;28;19926;-60
2023/12/20 03:17:24;;;;;;;;;;;;;;;;;;5153535;28;19941;-58
2023/12/20 03:19:55;;;;;;;;;;;;;;;;;;5148199;28;20013;-59
2023/12/20 03:22:26;;;;;;;;;;;;;;;;;;5147457;28;20292;-58
2023/12/20 03:24:58;;;;;;;;;;;;;;;;;;5134406;28;20215;-58
2023/12/20 03:30:38;;;;;;;;;;;;;;;;;;5150224;28;20034;-59
2023/12/20 03:33:09;;;;;;;;;;;;;;;;;;5145678;28;20017;-58
2023/12/20 03:35:40;;;;;;;;;;;;;;;;;;5147074;28;19922;-58
2023/12/20 03:38:11;;;;;;;;;;;;;;;;;;5134409;28;19988;-57
2023/12/20 03:40:42;;;;;;;;;;;;;;;;;;5151035;28;20373;-57
2023/12/20 03:43:13;;;;;;;;;;;;;;;;;;5146307;28;19980;-59
2023/12/20 03:45:44;;;;;;;;;;;;;;;;;;5146986;28;20353;-59
2023/12/20 03:48:15;;;;;;;;;;;;;;;;;;5131063;28;19921;-59
2023/12/20 03:50:47;;;;;;;;;;;;;;;;;;5146464;28;19944;-59
2023/12/20 03:53:18;;;;;;;;;;;;;;;;;;5137646;28;20409;-61
2023/12/20 03:55:49;;;;;;;;;;;;;;;;;;5147373;28;19918;-61
2023/12/20 03:58:20;;;;;;;;;;;;;;;;;;5155603;28;19922;-61
2023/12/20 04:00:51;;;;;;;;;;;;;;;;;;5149123;28;19961;-58
2023/12/20 04:03:22;;;;;;;;;;;;;;;;;;5131814;28;19991;-57
2023/12/20 04:05:53;;;;;;;;;;;;;;;;;;5131843;28;19918;-58
2023/12/20 04:08:24;;;;;;;;;;;;;;;;;;5148652;28;19921;-57
2023/12/20 04:10:55;;;;;;;;;;;;;;;;;;5127248;28;19918;-57
2023/12/20 04:13:26;;;;;;;;;;;;;;;;;;5146190;28;20377;-56
2023/12/20 04:15:57;;;;;;;;;;;;;;;;;;5127759;28;19980;-56
2023/12/20 04:18:28;;;;;;;;;;;;;;;;;;5148774;28;19918;-56
2023/12/20 04:21:00;;;;;;;;;;;;;;;;;;5153941;28;19929;-57
2023/12/20 04:23:31;;;;;;;;;;;;;;;;;;5144095;28;20322;-56
2023/12/20 04:26:02;;;;;;;;;;;;;;;;;;5153199;28;19933;-57
2023/12/20 04:28:33;;;;;;;;;;;;;;;;;;5143434;28;19952;-56
2023/12/20 04:31:04;;;;;;;;;;;;;;;;;;5126611;28;19918;-57
2023/12/20 04:33:35;;;;;;;;;;;;;;;;;;5143249;28;19929;-56
2023/12/20 04:36:06;;;;;;;;;;;;;;;;;;5134751;28;20261;-56
2023/12/20 04:38:37;;;;;;;;;;;;;;;;;;5143389;28;19917;-57
2023/12/20 04:41:08;;;;;;;;;;;;;;;;;;5142933;28;19917;-55
2023/12/20 04:43:39;;;;;;;;;;;;;;;;;;5143540;28;20376;-56
2023/12/20 04:46:10;;;;;;;;;;;;;;;;;;5142631;28;19918;-56
2023/12/20 04:48:41;;;;;;;;;;;;;;;;;;5142377;28;20346;-57
2023/12/20 04:51:12;;;;;;;;;;;;;;;;;;5143671;28;19988;-55
2023/12/20 04:53:43;;;;;;;;;;;;;;;;;;5126547;28;19926;-58
2023/12/20 04:56:14;;;;;;;;;;;;;;;;;;5142754;28;19926;-58
2023/12/20 04:58:45;;;;;;;;;;;;;;;;;;5142113;28;19940;-58
2023/12/20 05:01:16;;;;;;;;;;;;;;;;;;5142398;28;19988;-58
2023/12/20 05:03:47;;;;;;;;;;;;;;;;;;5132034;28;19993;-58
2023/12/20 05:06:18;;;;;;;;;;;;;;;;;;5142912;28;20001;-56
2023/12/20 05:08:49;;;;;;;;;;;;;;;;;;5126038;28;19918;-56
2023/12/20 05:11:20;;;;;;;;;;;;;;;;;;5142402;28;20381;-56
2023/12/20 05:13:51;;;;;;;;;;;;;;;;;;5142369;28;19929;-56
2023/12/20 05:16:22;;;;;;;;;;;;;;;;;;5142293;28;20281;-56
2023/12/20 05:18:54;;;;;;;;;;;;;;;;;;5142366;28;19956;-56
2023/12/20 05:21:25;;;;;;;;;;;;;;;;;;5146707;28;19952;-57
2023/12/20 05:23:56;;;;;;;;;;;;;;;;;;5125810;28;19976;-57
2023/12/20 05:26:27;;;;;;;;;;;;;;;;;;5142193;28;20195;-57
2023/12/20 05:28:58;;;;;;;;;;;;;;;;;;5142025;28;20000;-57
2023/12/20 05:31:29;;;;;;;;;;;;;;;;;;5141592;28;19922;-60
2023/12/20 05:34:00;;;;;;;;;;;;;;;;;;5125922;28;20000;-61
2023/12/20 05:36:31;;;;;;;;;;;;;;;;;;5126271;28;20357;-57
2023/12/20 05:39:03;;;;;;;;;;;;;;;;;;5146833;28;20339;-57
2023/12/20 05:41:34;;;;;;;;;;;;;;;;;;5149651;28;19973;-58
2023/12/20 05:44:05;;;;;;;;;;;;;;;;;;5142187;28;20345;-59
2023/12/20 05:46:36;;;;;;;;;;;;;;;;;;5143372;28;19926;-59
2023/12/20 05:49:07;;;;;;;;;;;;;;;;;;5144649;28;20309;-58
2023/12/20 05:51:38;;;;;;;;;;;;;;;;;;5126382;28;19924;-60
2023/12/20 05:54:09;;;;;;;;;;;;;;;;;;5139224;28;19992;-61
2023/12/20 05:56:40;;;;;;;;;;;;;;;;;;5140868;28;19922;-60
2023/12/20 05:59:11;;;;;;;;;;;;;;;;;;5125748;28;20004;-60
2023/12/20 06:01:42;;;;;;;;;;;;;;;;;;5143177;28;20020;-60
2023/12/20 06:04:13;;;;;;;;;;;;;;;;;;5131800;28;19918;-61
2023/12/20 06:06:44;;;;;;;;;;;;;;;;;;5142075;28;19918;-61
2023/12/20 06:09:15;;;;;;;;;;;;;;;;;;5140597;28;20344;-60
2023/12/20 06:11:46;;;;;;;;;;;;;;;;;;5123307;28;19945;-60
2023/12/20 06:14:17;;;;;;;;;;;;;;;;;;5123725;28;20397;-60
2023/12/20 06:16:48;;;;;;;;;;;;;;;;;;5127703;28;19918;-60
2023/12/20 06:19:19;;;;;;;;;;;;;;;;;;5141457;28;20424;-59
2023/12/20 06:21:50;;;;;;;;;;;;;;;;;;5140933;28;19918;-60
2023/12/20 06:24:21;;;;;;;;;;;;;;;;;;5141878;28;19932;-59
2023/12/20 06:26:52;;;;;;;;;;;;;;;;;;5125228;28;20081;-60
2023/12/20 06:29:23;;;;;;;;;;;;;;;;;;5144310;28;20368;-60
2023/12/20 06:31:54;;;;;;;;;;;;;;;;;;5144101;28;20004;-60
2023/12/20 06:34:25;;;;;;;;;;;;;;;;;;5149270;28;19922;-60
2023/12/20 06:36:56;;;;;;;;;;;;;;;;;;5130261;28;19925;-60
2023/12/20 06:39:28;;;;;;;;;;;;;;;;;;5121148;28;20362;-60
2023/12/20 06:41:59;;;;;;;;;;;;;;;;;;5141453;28;20365;-60
2023/12/20 06:44:30;;;;;;;;;;;;;;;;;;5142297;28;19965;-60
2023/12/20 06:47:01;;;;;;;;;;;;;;;;;;5125161;28;19922;-60
2023/12/20 06:49:32;;;;;;;;;;;;;;;;;;5145189;28;19917;-59
2023/12/20 06:52:03;;;;;;;;;;;;;;;;;;5144039;28;20216;-60
2023/12/20 06:54:34;;;;;;;;;;;;;;;;;;5141320;28;20373;-60
2023/12/20 06:57:05;;;;;;;;;;;;;;;;;;5124734;28;20243;-60
2023/12/20 06:59:36;;;;;;;;;;;;;;;;;;5142096;28;19982;-65
2023/12/20 07:02:07;;;;;;;;;;;;;;;;;;5132671;28;19922;-65
2023/12/20 07:04:38;;;;;;;;;;;;;;;;;;5145220;28;19925;-65
2023/12/20 07:07:09;;;;;;;;;;;;;;;;;;5143617;28;20029;-64
2023/12/20 07:09:42;;;;;;;;;;;;;;;;;;5147610;28;20001;-65
2023/12/20 07:12:13;;;;;;;;;;;;;;;;;;5159669;28;20378;-67
2023/12/20 07:14:44;;;;;;;;;;;;;;;;;;5137935;28;19918;-66
2023/12/20 07:17:15;;;;;;;;;;;;;;;;;;5124245;28;19928;-65
2023/12/20 07:19:46;;;;;;;;;;;;;;;;;;5144460;28;19961;-67
2023/12/20 07:22:17;;;;;;;;;;;;;;;;;;5139953;28;20386;-67
2023/12/20 07:24:49;;;;;;;;;;;;;;;;;;5145007;28;19924;-67
2023/12/20 07:27:20;;;;;;;;;;;;;;;;;;5140436;28;20027;-69
2023/12/20 07:29:51;;;;;;;;;;;;;;;;;;5140780;28;20006;-68
2023/12/20 07:32:22;;;;;;;;;;;;;;;;;;5140844;28;20401;-69
2023/12/20 07:34:54;;;;;;;;;;;;;;;;;;5121728;28;19918;-66
2023/12/20 07:37:25;;;;;;;;;;;;;;;;;;5139970;28;19973;-67
2023/12/20 07:39:56;;;;;;;;;;;;;;;;;;5127992;28;19928;-61
2023/12/20 07:42:27;;;;;;;;;;;;;;;;;;5124361;28;19929;-65
2023/12/20 07:44:58;;;;;;;;;;;;;;;;;;5143727;28;19918;-66
2023/12/20 07:47:29;;;;;;;;;;;;;;;;;;5149747;28;19918;-64
2023/12/20 07:50:00;;;;;;;;;;;;;;;;;;5144442;28;19928;-64
2023/12/20 07:52:31;;;;;;;;;;;;;;;;;;5143823;28;19922;-61
2023/12/20 07:55:04;;;;;;;;;;;;;;;;;;5140632;28;19917;-63
2023/12/20 07:57:35;;;;;;;;;;;;;;;;;;5143974;28;20333;-63
2023/12/20 08:00:06;;;;;;;;;;;;;;;;;;5129063;28;19922;-63
2023/12/20 08:02:38;;;;;;;;;;;;;;;;;;5127848;28;20009;-64
2023/12/20 08:05:09;;;;;;;;;;;;;;;;;;5127740;28;20388;-67
2023/12/20 08:07:40;;;;;;;;;;;;;;;;;;5132188;28;20412;-66
2023/12/20 08:10:15;;;;;;;;;;;;;;;;;;5127800;28;19922;-65
2023/12/20 08:12:46;;;;;;;;;;;;;;;;;;5143137;28;19961;-66
2023/12/20 08:15:17;;;;;;;;;;;;;;;;;;5143176;28;20454;-62
2023/12/20 08:17:50;;;;;;;;;;;;;;;;;;5130478;28;19918;-62
2023/12/20 08:20:21;;;;;;;;;;;;;;;;;;5143453;28;19929;-62
2023/12/20 08:22:52;;;;;;;;;;;;;;;;;;5130084;28;19930;-62
2023/12/20 08:25:23;;;;;;;;;;;;;;;;;;5143832;28;20318;-61
2023/12/20 08:27:54;;;;;;;;;;;;;;;;;;5144248;28;19945;-62
2023/12/20 08:30:25;;;;;;;;;;;;;;;;;;5147461;28;19980;-63
2023/12/20 08:32:56;;;;;;;;;;;;;;;;;;5125306;28;19933;-63
2023/12/20 08:35:27;;;;;;;;;;;;;;;;;;5141763;28;20006;-62
2023/12/20 08:37:58;;;;;;;;;;;;;;;;;;5138256;28;19925;-62
2023/12/20 08:40:29;;;;;;;;;;;;;;;;;;5142931;28;20230;-62
2023/12/20 08:43:00;;;;;;;;;;;;;;;;;;5127287;28;19918;-62
2023/12/20 08:45:31;;;;;;;;;;;;;;;;;;5127392;28;19930;-62
2023/12/20 08:48:03;;;;;;;;;;;;;;;;;;5144610;28;20031;-62
2023/12/20 08:50:34;;;;;;;;;;;;;;;;;;5127746;28;20416;-62
2023/12/20 08:53:05;;;;;;;;;;;;;;;;;;5127148;28;20390;-63
2023/12/20 08:55:36;;;;;;;;;;;;;;;;;;5141005;28;19918;-62
2023/12/20 08:58:08;;;;;;;;;;;;;;;;;;5143636;28;21445;-62
2023/12/20 09:00:39;;;;;;;;;;;;;;;;;;5146078;28;20422;-61
2023/12/20 09:03:09;;;;;;;;;;;;;;;;;;5144993;28;19926;-61
2023/12/20 09:05:40;;;;;;;;;;;;;;;;;;5146674;28;19918;-64
2023/12/20 09:08:12;;;;;;;;;;;;;;;;;;5142996;28;19928;-62
2023/12/20 09:10:44;;;;;;;;;;;;;;;;;;5128238;28;20348;-61
2023/12/20 09:13:15;;;;;;;;;;;;;;;;;;5126645;28;19981;-58
2023/12/20 09:15:46;;;;;;;;;;;;;;;;;;5149504;28;19925;-59
2023/12/20 09:18:17;;;;;;;;;;;;;;;;;;5143215;28;19917;-59
2023/12/20 09:20:48;;;;;;;;;;;;;;;;;;5127362;28;19957;-60
2023/12/20 09:23:19;;;;;;;;;;;;;;;;;;5145467;28;20364;-60
2023/12/20 09:25:50;;;;;;;;;;;;;;;;;;5128569;28;19926;-59
2023/12/20 09:28:21;;;;;;;;;;;;;;;;;;5130827;28;19925;-59
2023/12/20 09:30:52;;;;;;;;;;;;;;;;;;5126638;28;20239;-62
2023/12/20 09:33:24;;;;;;;;;;;;;;;;;;5133533;28;19950;-62
2023/12/20 09:35:55;;;;;;;;;;;;;;;;;;5146832;28;20423;-61
2023/12/20 09:38:26;;;;;;;;;;;;;;;;;;5145392;28;19922;-60
2023/12/20 09:40:57;;;;;;;;;;;;;;;;;;5144994;28;20009;-61
2023/12/20 09:43:29;;;;;;;;;;;;;;;;;;5142245;28;20004;-62
2023/12/20 09:46:02;;;;;;;;;;;;;;;;;;5144955;28;19922;-62
2023/12/20 09:48:33;;;;;;;;;;;;;;;;;;5158740;28;19925;-61
2023/12/20 09:51:04;;;;;;;;;;;;;;;;;;5141610;28;19918;-61
2023/12/20 09:53:35;;;;;;;;;;;;;;;;;;5142731;28;19922;-62
2023/12/20 09:56:06;;;;;;;;;;;;;;;;;;5145048;28;19983;-62
2023/12/20 09:58:37;;;;;;;;;;;;;;;;;;5142085;28;19969;-63
2023/12/20 10:01:08;;;;;;;;;;;;;;;;;;5148437;28;19926;-59
2023/12/20 10:03:40;;;;;;;;;;;;;;;;;;5126799;28;19926;-59
2023/12/20 10:06:11;;;;;;;;;;;;;;;;;;5141239;28;19918;-58
2023/12/20 10:08:42;;;;;;;;;;;;;;;;;;5143758;28;19918;-59
2023/12/20 10:11:13;;;;;;;;;;;;;;;;;;5125564;28;20001;-59
2023/12/20 10:13:44;;;;;;;;;;;;;;;;;;5129639;28;19921;-59
2023/12/20 10:16:15;;;;;;;;;;;;;;;;;;5144781;28;20289;-59
2023/12/20 10:18:46;;;;;;;;;;;;;;;;;;5125633;28;19925;-59
2023/12/20 10:21:17;;;;;;;;;;;;;;;;;;5147726;28;19945;-59
2023/12/20 10:23:49;;;;;;;;;;;;;;;;;;5125317;28;20188;-61
2023/12/20 10:26:23;;;;;;;;;;;;;;;;;;5158873;28;19918;-60
2023/12/20 10:28:55;;;;;;;;;;;;;;;;;;5127173;28;19922;-60
2023/12/20 10:31:26;;;;;;;;;;;;;;;;;;5125543;28;19922;-60
2023/12/20 10:33:57;;;;;;;;;;;;;;;;;;5125278;28;19922;-59
2023/12/20 10:36:28;;;;;;;;;;;;;;;;;;5148648;28;20239;-59
2023/12/20 10:38:59;;;;;;;;;;;;;;;;;;5125417;28;20025;-60
2023/12/20 10:41:30;;;;;;;;;;;;;;;;;;5148712;28;20359;-59
2023/12/20 10:44:01;;;;;;;;;;;;;;;;;;5141628;28;19929;-60
2023/12/20 10:46:36;;;;;;;;;;;;;;;;;;5124538;28;20313;-60
2023/12/20 10:49:06;;;;;;;;;;;;;;;;;;5141922;28;19972;-60
2023/12/20 10:51:37;;;;;;;;;;;;;;;;;;5139931;28;19922;-59
2023/12/20 10:54:08;;;;;;;;;;;;;;;;;;5124548;28;19961;-60
2023/12/20 10:56:39;;;;;;;;;;;;;;;;;;5150552;28;20252;-60
2023/12/20 10:59:11;;;;;;;;;;;;;;;;;;5157357;28;19922;-60
2023/12/20 11:01:42;;;;;;;;;;;;;;;;;;5124591;28;19925;-59
2023/12/20 11:04:13;;;;;;;;;;;;;;;;;;5130515;28;20041;-60
2023/12/20 11:06:43;;;;;;;;;;;;;;;;;;5124541;28;19925;-60
2023/12/20 11:09:15;;;;;;;;;;;;;;;;;;5122418;28;19973;-60
2023/12/20 11:11:46;;;;;;;;;;;;;;;;;;5140098;28;19925;-60
2023/12/20 11:14:17;;;;;;;;;;;;;;;;;;5140870;28;20369;-59
2023/12/20 11:16:48;;;;;;;;;;;;;;;;;;5127161;28;19918;-59
2023/12/20 11:19:19;;;;;;;;;;;;;;;;;;5149770;28;19973;-61
2023/12/20 11:21:50;;;;;;;;;;;;;;;;;;5128695;28;20349;-60
2023/12/20 11:24:21;;;;;;;;;;;;;;;;;;5144690;28;19918;-58
2023/12/20 11:26:52;;;;;;;;;;;;;;;;;;5128215;28;20384;-60
2023/12/20 11:29:23;;;;;;;;;;;;;;;;;;5128342;28;19926;-60
2023/12/20 11:31:54;;;;;;;;;;;;;;;;;;5145486;28;19945;-59
2023/12/20 11:34:25;;;;;;;;;;;;;;;;;;5144672;28;19929;-60
2023/12/20 11:36:55;;;;;;;;;;;;;;;;;;5144511;28;20443;-61
2023/12/20 11:39:27;;;;;;;;;;;;;;;;;;5141822;28;19925;-60
2023/12/20 11:41:58;;;;;;;;;;;;;;;;;;5128108;28;19929;-58
2023/12/20 11:44:29;;;;;;;;;;;;;;;;;;5144385;28;19973;-62
2023/12/20 11:47:00;;;;;;;;;;;;;;;;;;5134387;28;19921;-61
2023/12/20 11:49:31;;;;;;;;;;;;;;;;;;5144421;28;19918;-61
2023/12/20 11:52:02;;;;;;;;;;;;;;;;;;5143987;28;19969;-61
2023/12/20 11:54:33;;;;;;;;;;;;;;;;;;5128136;28;19972;-61
2023/12/20 11:57:04;;;;;;;;;;;;;;;;;;5127006;28;19965;-61
2023/12/20 11:59:36;;;;;;;;;;;;;;;;;;5132756;28;19921;-63
2023/12/20 12:02:07;;;;;;;;;;;;;;;;;;5144682;28;19924;-62
2023/12/20 12:04:38;;;;;;;;;;;;;;;;;;5129019;28;19973;-61
2023/12/20 12:07:09;;;;;;;;;;;;;;;;;;5145644;28;19918;-62
2023/12/20 12:09:40;;;;;;;;;;;;;;;;;;5127750;28;19918;-59
2023/12/20 12:12:11;;;;;;;;;;;;;;;;;;5144064;28;19918;-61
2023/12/20 12:14:42;;;;;;;;;;;;;;;;;;5145080;28;19922;-60
2023/12/20 12:17:13;;;;;;;;;;;;;;;;;;5127720;28;19965;-60
2023/12/20 12:19:44;;;;;;;;;;;;;;;;;;5143880;28;20642;-62
2023/12/20 12:22:16;;;;;;;;;;;;;;;;;;5128654;28;19988;-60
2023/12/20 12:24:47;;;;;;;;;;;;;;;;;;5127677;28;20457;-61
2023/12/20 12:27:18;;;;;;;;;;;;;;;;;;5131489;28;19926;-61
2023/12/20 12:29:49;;;;;;;;;;;;;;;;;;5145532;28;20374;-61
2023/12/20 12:32:20;;;;;;;;;;;;;;;;;;5127631;28;20041;-64
2023/12/20 12:34:51;;;;;;;;;;;;;;;;;;5145162;28;19929;-63
2023/12/20 12:37:23;;;;;;;;;;;;;;;;;;5143269;28;19928;-67
2023/12/20 12:39:54;;;;;;;;;;;;;;;;;;5143133;28;19972;-64
2023/12/20 12:42:28;;;;;;;;;;;;;;;;;;5143297;28;20428;-65
2023/12/20 12:44:59;;;;;;;;;;;;;;;;;;5126595;28;19966;-65
2023/12/20 12:47:30;;;;;;;;;;;;;;;;;;5126986;28;19925;-67
2023/12/20 12:50:01;;;;;;;;;;;;;;;;;;5143179;28;19918;-67
2023/12/20 12:52:32;;;;;;;;;;;;;;;;;;5126600;28;19933;-68
2023/12/20 12:55:04;;;;;;;;;;;;;;;;;;5127127;28;19996;-65
2023/12/20 12:57:35;;;;;;;;;;;;;;;;;;5146642;28;20013;-67
2023/12/20 13:00:08;;;;;;;;;;;;;;;;;;5126724;28;19918;-67
2023/12/20 13:02:41;;;;;;;;;;;;;;;;;;5142030;28;20012;-66
2023/12/20 13:05:12;;;;;;;;;;;;;;;;;;5142885;28;19922;-67
2023/12/20 13:07:45;;;;;;;;;;;;;;;;;;5142259;28;19962;-67
2023/12/20 13:10:16;;;;;;;;;;;;;;;;;;5126971;28;19949;-66
2023/12/20 13:12:47;;;;;;;;;;;;;;;;;;5142286;28;19981;-67
2023/12/20 13:15:18;;;;;;;;;;;;;;;;;;5130469;28;19931;-66
2023/12/20 13:17:49;;;;;;;;;;;;;;;;;;5142363;28;19922;-61
2023/12/20 13:20:20;;;;;;;;;;;;;;;;;;5126716;28;19922;-62
2023/12/20 13:22:51;;;;;;;;;;;;;;;;;;5142517;28;20353;-61
2023/12/20 13:25:23;;;;;;;;;;;;;;;;;;5142400;28;19922;-61
2023/12/20 13:27:54;;;;;;;;;;;;;;;;;;5127989;28;20020;-61
2023/12/20 13:30:25;;;;;;;;;;;;;;;;;;5144419;28;20400;-62
2023/12/20 13:32:56;;;;;;;;;;;;;;;;;;5141971;28;19929;-61
2023/12/20 13:35:27;;;;;;;;;;;;;;;;;;5142932;28;19918;-62
2023/12/20 13:37:58;;;;;;;;;;;;;;;;;;5141753;28;19928;-61
2023/12/20 13:40:29;;;;;;;;;;;;;;;;;;5126461;28;20396;-61
2023/12/20 13:43:00;;;;;;;;;;;;;;;;;;5149634;28;19925;-61
2023/12/20 13:45:31;;;;;;;;;;;;;;;;;;5126306;28;20246;-61
2023/12/20 13:48:02;;;;;;;;;;;;;;;;;;5142332;28;20009;-61
2023/12/20 13:50:33;;;;;;;;;;;;;;;;;;5144484;28;20729;-60
2023/12/20 13:53:04;;;;;;;;;;;;;;;;;;5146540;28;19992;-62
2023/12/20 13:55:35;;;;;;;;;;;;;;;;;;5129922;28;19918;-62
2023/12/20 13:58:06;;;;;;;;;;;;;;;;;;5142387;28;19918;-61
2023/12/20 14:00:37;;;;;;;;;;;;;;;;;;5123066;28;19921;-61
2023/12/20 14:03:09;;;;;;;;;;;;;;;;;;5145277;28;19922;-60
2023/12/20 14:05:40;;;;;;;;;;;;;;;;;;5125381;28;19922;-61
2023/12/20 14:08:11;;;;;;;;;;;;;;;;;;5125836;28;19922;-60
2023/12/20 14:10:42;;;;;;;;;;;;;;;;;;5127488;28;19984;-61
2023/12/20 14:13:13;;;;;;;;;;;;;;;;;;5144354;28;19921;-61
2023/12/20 14:15:44;;;;;;;;;;;;;;;;;;5141939;28;19936;-62
2023/12/20 14:18:16;;;;;;;;;;;;;;;;;;5128949;28;19961;-60
2023/12/20 14:20:47;;;;;;;;;;;;;;;;;;5143722;28;20004;-62
2023/12/20 14:23:18;;;;;;;;;;;;;;;;;;5141816;28;20009;-61
2023/12/20 14:25:49;;;;;;;;;;;;;;;;;;5124992;28;19918;-60
2023/12/20 14:28:20;;;;;;;;;;;;;;;;;;5125048;28;19928;-61
2023/12/20 14:30:51;;;;;;;;;;;;;;;;;;5125499;28;19917;-60
2023/12/20 14:33:23;;;;;;;;;;;;;;;;;;5141674;28;20000;-60
2023/12/20 14:35:54;;;;;;;;;;;;;;;;;;5140779;28;20008;-63
2023/12/20 14:38:25;;;;;;;;;;;;;;;;;;5131878;28;19921;-63
2023/12/20 14:40:56;;;;;;;;;;;;;;;;;;5156607;28;19941;-62
2023/12/20 14:43:27;;;;;;;;;;;;;;;;;;5126665;28;20027;-62
2023/12/20 14:45:58;;;;;;;;;;;;;;;;;;5141245;28;19921;-61
2023/12/20 14:48:29;;;;;;;;;;;;;;;;;;5141767;28;20228;-61
2023/12/20 14:51:00;;;;;;;;;;;;;;;;;;5125376;28;19918;-61
2023/12/20 14:53:31;;;;;;;;;;;;;;;;;;5141230;28;19930;-61
2023/12/20 14:56:03;;;;;;;;;;;;;;;;;;5141378;28;19945;-66
2023/12/20 14:58:34;;;;;;;;;;;;;;;;;;5124466;28;19928;-62
2023/12/20 15:01:08;;;;;;;;;;;;;;;;;;5127621;28;19918;-61
2023/12/20 15:03:39;;;;;;;;;;;;;;;;;;5140760;28;19918;-62
2023/12/20 15:06:11;;;;;;;;;;;;;;;;;;5123781;28;19924;-63
2023/12/20 15:08:42;;;;;;;;;;;;;;;;;;5162193;28;19922;-64
2023/12/20 15:11:13;;;;;;;;;;;;;;;;;;5141443;28;19962;-64
2023/12/20 15:13:47;;;;;;;;;;;;;;;;;;5129099;28;19925;-63
2023/12/20 15:16:18;;;;;;;;;;;;;;;;;;5142511;28;19927;-64
2023/12/20 15:18:49;;;;;;;;;;;;;;;;;;5141791;28;19926;-63
2023/12/20 15:21:22;;;;;;;;;;;;;;;;;;5143518;28;19929;-63
2023/12/20 15:23:53;;;;;;;;;;;;;;;;;;5142072;28;20001;-63
2023/12/20 15:26:24;;;;;;;;;;;;;;;;;;5141621;28;19918;-64
2023/12/20 15:28:59;;;;;;;;;;;;;;;;;;5141387;28;19922;-63
2023/12/20 15:31:31;;;;;;;;;;;;;;;;;;5147137;28;20004;-63
2023/12/20 15:34:02;;;;;;;;;;;;;;;;;;5124547;28;19922;-64
2023/12/20 15:36:33;;;;;;;;;;;;;;;;;;5143027;28;19924;-63
2023/12/20 15:39:04;;;;;;;;;;;;;;;;;;5144550;28;19929;-64
2023/12/20 15:41:35;;;;;;;;;;;;;;;;;;5143546;28;20369;-63
2023/12/20 15:44:08;;;;;;;;;;;;;;;;;;5145951;28;19918;-64
2023/12/20 15:46:39;;;;;;;;;;;;;;;;;;5141929;28;19922;-65
2023/12/20 15:49:11;;;;;;;;;;;;;;;;;;5144104;28;19924;-65
2023/12/20 15:51:42;;;;;;;;;;;;;;;;;;5125426;28;19929;-64
2023/12/20 15:54:13;;;;;;;;;;;;;;;;;;5128936;28;19926;-64
2023/12/20 15:56:46;;;;;;;;;;;;;;;;;;5148425;28;19928;-63
2023/12/20 15:59:17;;;;;;;;;;;;;;;;;;5138006;28;19925;-63
2023/12/20 16:01:48;;;;;;;;;;;;;;;;;;5140356;28;19973;-62
2023/12/20 16:04:19;;;;;;;;;;;;;;;;;;5141503;28;20362;-63
2023/12/20 16:06:50;;;;;;;;;;;;;;;;;;5144165;28;19929;-63
2023/12/20 16:09:21;;;;;;;;;;;;;;;;;;5147712;28;19948;-63
2023/12/20 16:11:52;;;;;;;;;;;;;;;;;;5143454;28;19918;-63
2023/12/20 16:14:25;;;;;;;;;;;;;;;;;;5143736;28;20029;-63
2023/12/20 16:16:56;;;;;;;;;;;;;;;;;;5130222;28;20348;-62
2023/12/20 16:19:27;;;;;;;;;;;;;;;;;;5144688;28;19918;-63
2023/12/20 16:21:58;;;;;;;;;;;;;;;;;;5152189;28;20189;-63
2023/12/20 16:24:31;;;;;;;;;;;;;;;;;;5131981;28;20298;-63
2023/12/20 16:27:03;;;;;;;;;;;;;;;;;;5143444;28;19933;-63
2023/12/20 16:29:34;;;;;;;;;;;;;;;;;;5127919;28;19921;-64
2023/12/20 16:32:05;;;;;;;;;;;;;;;;;;5128227;28;19951;-63
2023/12/20 16:34:36;;;;;;;;;;;;;;;;;;5143792;28;19933;-63
2023/12/20 16:37:07;;;;;;;;;;;;;;;;;;5144067;28;19988;-63
2023/12/20 16:39:38;;;;;;;;;;;;;;;;;;5148309;28;20020;-63
2023/12/20 16:42:09;;;;;;;;;;;;;;;;;;5143470;28;19976;-64
2023/12/20 16:44:40;;;;;;;;;;;;;;;;;;5127669;28;19918;-63
2023/12/20 16:47:11;;;;;;;;;;;;;;;;;;5143703;28;19921;-63
2023/12/20 16:49:42;;;;;;;;;;;;;;;;;;5127552;28;20358;-63
2023/12/20 16:52:13;;;;;;;;;;;;;;;;;;5152477;28;19917;-67
2023/12/20 16:54:44;;;;;;;;;;;;;;;;;;5147843;28;19952;-67
2023/12/20 16:57:18;;;;;;;;;;;;;;;;;;5144856;28;19918;-67
2023/12/20 16:59:49;;;;;;;;;;;;;;;;;;5143325;28;20325;-67
2023/12/20 17:02:20;;;;;;;;;;;;;;;;;;5125517;28;19977;-60
2023/12/20 17:04:51;;;;;;;;;;;;;;;;;;5142758;28;19922;-61
2023/12/20 17:07:22;;;;;;;;;;;;;;;;;;5143607;28;20369;-61
2023/12/20 17:09:53;;;;;;;;;;;;;;;;;;5145005;28;20009;-62
2023/12/20 17:12:25;;;;;;;;;;;;;;;;;;5164118;28;20008;-62
2023/12/20 17:14:56;;;;;;;;;;;;;;;;;;5141371;28;19964;-60